Terminal Aerodrome Forecast
Issued by NWS Lubbock, TX

Home | Current Version | Previous Version | Text Only | Print | Product List | Glossary On
Versions: 1 2 3 4 5 6 7 8 9 10 11 12 13 14 15 16 17 18 19 20 21 22 23 24 25 26
561
FTUS44 KLUB 251848 AAA
TAFLBB
TAF AMD
KLBB 251848Z 2519/2618 16010KT 6SM -RA SCT015 SCT025 OVC070
      TEMPO 2519/2521 3SM TSRA BR SCT008 BKN015CB
     FM252100 15011KT P6SM BKN040
     FM260700 03017KT 4SM RA BR SCT005 OVC012=

USA.gov is the U.S. government's official web portal to all federal, state and local government web resources and services.